createdAt,value
2018-09-26T00:01:03.058Z,98.70
2018-09-26T00:03:35.567Z,98.50
2018-09-26T00:06:04.829Z,98.80
2018-09-26T00:08:34.035Z,98.70
2018-09-26T00:11:03.333Z,98.80
2018-09-26T00:13:32.559Z,99.40
2018-09-26T00:16:01.780Z,99.60
2018-09-26T00:18:31.134Z,99.90
2018-09-26T00:21:00.421Z,99.50
2018-09-26T00:23:29.627Z,99.90
2018-09-26T00:25:58.824Z,99.80
2018-09-26T00:28:28.403Z,99.90
2018-09-26T00:30:57.623Z,99.60
2018-09-26T00:33:26.828Z,99.70
2018-09-26T00:35:56.088Z,99.50
2018-09-26T00:38:25.401Z,99.90
2018-09-26T00:40:54.628Z,99.90
2018-09-26T00:43:23.925Z,99.90
2018-09-26T00:45:53.130Z,99.90
2018-09-26T00:48:22.381Z,99.90
2018-09-26T00:50:51.569Z,99.90
2018-09-26T00:53:20.929Z,99.90
2018-09-26T00:55:50.150Z,99.90
2018-09-26T00:58:19.392Z,99.90
2018-09-26T01:00:48.599Z,99.90
2018-09-26T01:03:17.823Z,99.90
2018-09-26T01:05:47.078Z,99.90
2018-09-26T01:08:16.449Z,99.90
2018-09-26T01:10:45.725Z,99.90
2018-09-26T01:13:14.944Z,99.90
2018-09-26T01:15:44.210Z,99.90
2018-09-26T01:18:13.477Z,99.90
2018-09-26T01:20:44.047Z,99.90
2018-09-26T01:23:13.755Z,99.90
2018-09-26T01:25:43.464Z,99.90
2018-09-26T01:28:12.741Z,99.90
2018-09-26T01:30:41.995Z,99.90
2018-09-26T01:33:11.250Z,99.90
2018-09-26T01:35:40.463Z,99.90
2018-09-26T01:38:09.736Z,99.90
2018-09-26T01:40:38.963Z,99.90
2018-09-26T01:43:08.191Z,99.90
2018-09-26T01:45:37.454Z,99.90
2018-09-26T01:48:06.788Z,99.90
2018-09-26T01:50:36.144Z,99.90
2018-09-26T01:53:05.363Z,99.90
2018-09-26T01:55:34.663Z,99.90
2018-09-26T01:58:03.932Z,99.90
2018-09-26T02:00:33.159Z,99.90
2018-09-26T02:03:02.357Z,99.90
2018-09-26T02:05:31.578Z,99.90
2018-09-26T02:08:00.811Z,99.90
2018-09-26T02:10:30.035Z,99.90
2018-09-26T02:12:59.279Z,99.90
2018-09-26T02:15:28.525Z,99.90
2018-09-26T02:17:57.828Z,99.90
2018-09-26T02:20:27.076Z,99.90
2018-09-26T02:22:56.299Z,99.90
2018-09-26T02:25:25.528Z,99.90
2018-09-26T02:27:54.955Z,99.90
2018-09-26T02:30:24.153Z,99.90
2018-09-26T02:32:53.346Z,99.90
2018-09-26T02:35:22.575Z,99.90
2018-09-26T02:37:51.924Z,99.90
2018-09-26T02:40:21.151Z,99.90
2018-09-26T02:42:50.372Z,99.90
2018-09-26T02:45:19.587Z,99.90
2018-09-26T02:47:48.922Z,99.90
2018-09-26T02:50:18.143Z,99.90
2018-09-26T02:52:47.437Z,99.90
2018-09-26T02:55:16.671Z,99.90
2018-09-26T02:57:46.044Z,99.90
2018-09-26T03:00:15.268Z,99.90
2018-09-26T03:02:44.517Z,99.90
2018-09-26T03:05:13.744Z,99.90
2018-09-26T03:07:43.012Z,99.90
2018-09-26T03:10:12.342Z,99.90
2018-09-26T03:12:41.545Z,99.90
2018-09-26T03:15:10.785Z,99.90
2018-09-26T03:17:40.168Z,99.90
2018-09-26T03:20:09.437Z,99.90
2018-09-26T03:22:38.669Z,99.90
2018-09-26T03:25:08.012Z,99.90
2018-09-26T03:27:37.337Z,99.90
2018-09-26T03:30:06.642Z,99.90
2018-09-26T03:32:35.844Z,99.90
2018-09-26T03:35:05.101Z,99.90
2018-09-26T03:37:34.414Z,99.90
2018-09-26T03:40:03.711Z,99.90
2018-09-26T03:42:32.944Z,99.90
2018-09-26T03:45:02.346Z,99.90
2018-09-26T03:47:31.597Z,99.90
2018-09-26T03:50:00.811Z,99.90
2018-09-26T03:52:30.033Z,99.90
2018-09-26T03:54:59.241Z,99.90
2018-09-26T03:57:28.645Z,99.90
2018-09-26T03:59:57.911Z,99.90
2018-09-26T04:02:27.213Z,99.90
2018-09-26T04:04:56.452Z,99.90
2018-09-26T04:07:25.737Z,99.90
2018-09-26T04:09:54.931Z,99.90
2018-09-26T04:12:24.139Z,99.90
2018-09-26T04:14:53.359Z,99.90
2018-09-26T04:17:22.632Z,99.90
2018-09-26T04:19:51.836Z,99.90
2018-09-26T04:22:21.059Z,99.90
2018-09-26T04:24:50.270Z,99.90
2018-09-26T04:27:19.719Z,99.90
2018-09-26T04:29:48.936Z,99.90
2018-09-26T04:32:18.131Z,99.90
2018-09-26T04:34:47.530Z,99.90
2018-09-26T04:37:16.803Z,99.90
2018-09-26T04:39:46.036Z,99.90
2018-09-26T04:42:15.260Z,99.90
2018-09-26T04:44:44.615Z,99.90
2018-09-26T04:47:13.929Z,99.90
2018-09-26T04:49:43.099Z,99.90
2018-09-26T04:52:12.423Z,99.90
2018-09-26T04:54:41.625Z,99.90
2018-09-26T04:57:10.952Z,99.90
2018-09-26T04:59:40.172Z,99.90
2018-09-26T05:02:09.501Z,99.90
2018-09-26T05:04:38.782Z,99.90
2018-09-26T05:07:08.083Z,99.90
2018-09-26T05:09:37.327Z,99.90
2018-09-26T05:12:06.601Z,99.90
2018-09-26T05:14:36.815Z,99.90
2018-09-26T05:17:06.192Z,99.90
2018-09-26T05:19:35.552Z,99.90
2018-09-26T05:22:04.835Z,99.90
2018-09-26T05:24:34.093Z,99.90
2018-09-26T05:27:03.449Z,99.90
2018-09-26T05:29:32.655Z,99.90
2018-09-26T05:32:01.853Z,99.90
2018-09-26T05:34:31.124Z,99.90
2018-09-26T05:37:00.424Z,99.90
2018-09-26T05:39:29.807Z,99.90
2018-09-26T05:41:59.427Z,99.90
2018-09-26T05:44:28.909Z,99.90
2018-09-26T05:46:58.368Z,99.90
2018-09-26T05:49:27.783Z,99.90
2018-09-26T05:51:57.056Z,99.90
2018-09-26T05:54:26.303Z,99.90
2018-09-26T05:56:55.576Z,99.90
2018-09-26T05:59:24.768Z,99.90
2018-09-26T06:01:54.006Z,99.90
2018-09-26T06:04:23.958Z,99.90
2018-09-26T06:06:54.230Z,99.90
2018-09-26T06:09:23.545Z,99.90
2018-09-26T06:11:52.906Z,99.90
2018-09-26T06:14:22.437Z,99.90
2018-09-26T06:16:51.689Z,99.90
2018-09-26T06:19:20.911Z,99.90
2018-09-26T06:21:50.116Z,99.90
2018-09-26T06:24:19.343Z,99.90
2018-09-26T06:26:48.629Z,99.90
2018-09-26T06:29:17.841Z,99.90
2018-09-26T06:31:47.081Z,99.90
2018-09-26T06:34:16.299Z,99.90
2018-09-26T06:36:45.604Z,99.90
2018-09-26T06:39:14.873Z,99.90
2018-09-26T06:41:44.180Z,99.90
2018-09-26T06:44:13.736Z,99.90
2018-09-26T06:46:42.989Z,99.90
2018-09-26T06:49:12.236Z,99.90
2018-09-26T06:51:41.473Z,99.90
2018-09-26T06:54:10.733Z,99.90
2018-09-26T06:56:40.086Z,99.90
2018-09-26T06:59:09.308Z,99.90
2018-09-26T07:01:38.584Z,99.90
2018-09-26T07:04:07.811Z,99.90
2018-09-26T07:06:37.119Z,99.90
2018-09-26T07:09:08.565Z,99.90
2018-09-26T07:11:37.863Z,99.90
2018-09-26T07:14:07.194Z,99.90
2018-09-26T07:16:36.490Z,99.90
2018-09-26T07:19:05.789Z,99.90
2018-09-26T07:21:35.036Z,99.90
2018-09-26T07:24:10.787Z,99.90
2018-09-26T07:26:40.123Z,99.90
2018-09-26T07:29:09.335Z,99.90
2018-09-26T07:31:38.641Z,99.90
2018-09-26T07:34:07.941Z,99.90
2018-09-26T07:36:37.186Z,99.90
2018-09-26T07:39:09.385Z,99.90
2018-09-26T07:41:38.993Z,99.90
2018-09-26T07:44:08.409Z,99.90
2018-09-26T07:46:37.718Z,99.90
2018-09-26T07:49:06.965Z,99.90
2018-09-26T07:51:36.471Z,99.90
2018-09-26T07:54:05.971Z,99.90
2018-09-26T07:56:35.407Z,99.90
2018-09-26T07:59:05.417Z,99.90
2018-09-26T08:01:34.808Z,99.90
2018-09-26T08:04:04.261Z,99.90
2018-09-26T08:06:33.633Z,99.90
2018-09-26T08:09:03.181Z,99.90
2018-09-26T08:11:32.582Z,99.90
2018-09-26T08:14:02.188Z,99.90
2018-09-26T08:16:31.775Z,99.90
2018-09-26T08:19:01.072Z,99.90
2018-09-26T08:21:30.512Z,99.90
2018-09-26T08:24:00.033Z,99.90
2018-09-26T08:26:29.240Z,99.90
2018-09-26T08:28:58.605Z,99.90
2018-09-26T08:31:27.959Z,99.90
2018-09-26T08:33:57.779Z,99.90
2018-09-26T08:36:27.211Z,99.90
2018-09-26T08:38:56.574Z,99.90
2018-09-26T08:41:25.859Z,99.90
2018-09-26T08:43:55.260Z,99.90
2018-09-26T08:46:24.639Z,99.90
2018-09-26T08:48:53.983Z,99.90
2018-09-26T08:51:23.323Z,99.90
2018-09-26T08:53:52.679Z,99.90
2018-09-26T08:56:22.138Z,99.90
2018-09-26T08:58:51.652Z,99.90
2018-09-26T09:01:26.028Z,99.90
2018-09-26T09:03:55.403Z,99.90
2018-09-26T09:06:24.949Z,99.90
2018-09-26T09:08:54.254Z,99.90
2018-09-26T09:11:23.609Z,99.90
2018-09-26T09:13:52.894Z,99.90
2018-09-26T09:16:22.452Z,99.90
2018-09-26T09:18:51.799Z,99.90
2018-09-26T09:21:21.125Z,99.90
2018-09-26T09:23:50.480Z,99.90
2018-09-26T09:26:19.966Z,99.90
2018-09-26T09:28:49.373Z,99.90
2018-09-26T09:31:18.779Z,99.70
2018-09-26T09:33:48.080Z,99.30
2018-09-26T09:36:17.456Z,99.80
2018-09-26T09:38:46.773Z,99.90
2018-09-26T09:41:15.975Z,99.90
2018-09-26T09:43:45.282Z,97.70
2018-09-26T09:46:14.586Z,97.90
2018-09-26T09:48:43.940Z,97.50
2018-09-26T09:51:13.257Z,95.40
2018-09-26T09:53:42.642Z,95.90
2018-09-26T09:56:12.022Z,95.70
2018-09-26T09:58:41.369Z,95.40
2018-09-26T10:01:15.796Z,96.60
2018-09-26T10:03:45.196Z,95.10
2018-09-26T10:06:14.634Z,94.90
2018-09-26T10:08:44.014Z,92.80
2018-09-26T10:11:13.497Z,94.00
2018-09-26T10:13:42.861Z,91.80
2018-09-26T10:16:12.266Z,90.80
2018-09-26T10:18:41.749Z,91.20
2018-09-26T10:21:11.259Z,90.50
2018-09-26T10:23:40.624Z,88.50
2018-09-26T10:26:10.452Z,89.80
2018-09-26T10:28:39.800Z,89.90
2018-09-26T10:31:09.267Z,90.40
2018-09-26T10:33:38.511Z,88.40
2018-09-26T10:36:07.941Z,86.50
2018-09-26T10:38:37.339Z,85.50
2018-09-26T10:41:06.580Z,82.40
2018-09-26T10:43:35.876Z,83.70
2018-09-26T10:46:05.237Z,82.30
2018-09-26T10:48:34.614Z,83.30
2018-09-26T10:51:03.968Z,82.00
2018-09-26T10:53:33.367Z,80.30
2018-09-26T10:56:02.682Z,80.50
2018-09-26T10:58:32.042Z,77.80
2018-09-26T11:01:01.427Z,77.40
2018-09-26T11:03:30.750Z,77.00
2018-09-26T11:06:00.159Z,76.50
2018-09-26T11:08:29.476Z,74.60
2018-09-26T11:10:58.867Z,76.70
2018-09-26T11:13:28.436Z,76.30
2018-09-26T11:15:57.783Z,74.40
2018-09-26T11:18:27.140Z,71.50
2018-09-26T11:20:56.520Z,73.20
2018-09-26T11:23:25.895Z,72.90
2018-09-26T11:25:55.311Z,74.60
2018-09-26T11:28:24.896Z,71.20
2018-09-26T11:30:54.163Z,62.80
2018-09-26T11:33:23.462Z,60.80
2018-09-26T11:35:52.729Z,60.60
2018-09-26T11:38:22.293Z,58.20
2018-09-26T11:40:51.611Z,57.10
2018-09-26T11:43:20.887Z,58.20
2018-09-26T11:45:50.285Z,56.40
2018-09-26T11:48:19.751Z,57.20
2018-09-26T11:50:49.097Z,55.70
2018-09-26T11:53:18.464Z,56.90
2018-09-26T11:55:47.902Z,55.60
2018-09-26T11:58:17.378Z,55.30
2018-09-26T12:00:46.747Z,54.40
2018-09-26T12:03:16.077Z,52.90
2018-09-26T12:05:45.449Z,53.60
2018-09-26T12:08:14.789Z,53.60
2018-09-26T12:10:44.120Z,53.00
2018-09-26T12:13:13.448Z,53.30
2018-09-26T12:15:42.756Z,53.20
2018-09-26T12:18:12.273Z,52.50
2018-09-26T12:20:41.844Z,51.50
2018-09-26T12:23:11.208Z,52.40
2018-09-26T12:25:40.592Z,54.10
2018-09-26T12:28:10.965Z,52.30
2018-09-26T12:30:40.363Z,52.70
2018-09-26T12:33:09.750Z,53.60
2018-09-26T12:35:39.079Z,53.90
2018-09-26T12:38:08.507Z,53.40
2018-09-26T12:40:37.839Z,52.90
2018-09-26T12:43:07.170Z,53.10
2018-09-26T12:45:36.511Z,54.30
2018-09-26T12:48:05.898Z,53.20
2018-09-26T12:50:35.278Z,52.30
2018-09-26T12:53:05.060Z,52.30
2018-09-26T12:55:34.803Z,51.20
2018-09-26T12:58:04.273Z,50.80
2018-09-26T13:00:33.850Z,50.20
2018-09-26T13:03:03.601Z,49.10
2018-09-26T13:05:32.945Z,49.30
2018-09-26T13:08:02.339Z,49.90
2018-09-26T13:10:31.696Z,49.20
2018-09-26T13:13:01.129Z,49.30
2018-09-26T13:15:30.518Z,50.40
2018-09-26T13:17:59.965Z,49.90
2018-09-26T13:20:29.299Z,49.20
2018-09-26T13:22:58.597Z,50.10
2018-09-26T13:25:28.067Z,48.00
2018-09-26T13:27:59.534Z,49.50
2018-09-26T13:30:28.891Z,48.40
2018-09-26T13:32:58.331Z,49.70
2018-09-26T13:35:27.735Z,49.40
2018-09-26T13:37:57.048Z,47.70
2018-09-26T13:40:26.591Z,48.70
2018-09-26T13:42:55.847Z,48.10
2018-09-26T13:45:25.131Z,48.70
2018-09-26T13:47:54.413Z,49.20
2018-09-26T13:50:23.770Z,49.30
2018-09-26T13:52:52.911Z,47.30
2018-09-26T13:55:22.190Z,47.80
2018-09-26T13:57:52.535Z,48.40
2018-09-26T14:00:21.801Z,47.50
2018-09-26T14:02:51.236Z,47.60
2018-09-26T14:05:20.543Z,47.70
2018-09-26T14:07:50.049Z,48.20
2018-09-26T14:10:19.380Z,48.00
2018-09-26T14:12:48.770Z,48.70
2018-09-26T14:15:18.096Z,49.60
2018-09-26T14:17:47.570Z,48.00
2018-09-26T14:20:17.026Z,49.00
2018-09-26T14:22:46.427Z,46.60
2018-09-26T14:25:15.756Z,47.50
2018-09-26T14:27:45.100Z,46.50
2018-09-26T14:30:14.513Z,47.20
2018-09-26T14:32:43.790Z,46.40
2018-09-26T14:35:13.123Z,45.70
2018-09-26T14:37:42.503Z,47.50
2018-09-26T14:40:11.967Z,49.50
2018-09-26T14:42:41.299Z,51.20
2018-09-26T14:45:10.606Z,52.40
2018-09-26T14:47:39.882Z,54.20
2018-09-26T14:50:09.338Z,54.70
2018-09-26T14:52:38.600Z,55.80
2018-09-26T14:55:07.929Z,57.60
2018-09-26T14:57:37.275Z,58.40
2018-09-26T15:00:07.055Z,59.10
2018-09-26T15:02:36.361Z,60.20
2018-09-26T15:05:05.684Z,61.10
2018-09-26T15:07:35.091Z,62.50
2018-09-26T15:10:04.464Z,64.10
2018-09-26T15:12:33.820Z,65.10
2018-09-26T15:15:03.025Z,66.20
2018-09-26T15:17:32.336Z,67.70
2018-09-26T15:20:01.675Z,68.20
2018-09-26T15:22:31.004Z,68.00
2018-09-26T15:25:00.351Z,69.50
2018-09-26T15:27:29.761Z,70.30
2018-09-26T15:29:59.093Z,71.40
2018-09-26T15:32:28.440Z,70.80
2018-09-26T15:34:58.136Z,72.50
2018-09-26T15:37:27.713Z,72.90
2018-09-26T15:39:57.075Z,73.20
2018-09-26T15:42:26.517Z,73.00
2018-09-26T15:44:55.887Z,74.80
2018-09-26T15:47:25.303Z,74.80
2018-09-26T15:49:54.575Z,75.20
2018-09-26T15:52:24.102Z,76.50
2018-09-26T15:54:53.345Z,76.00
2018-09-26T15:57:22.681Z,77.90
2018-09-26T15:59:52.016Z,76.80
2018-09-26T16:02:21.458Z,78.90
2018-09-26T16:04:50.687Z,78.90
2018-09-26T16:07:20.176Z,79.80
2018-09-26T16:09:49.440Z,80.50
2018-09-26T16:12:18.833Z,80.40
2018-09-26T16:14:48.182Z,80.70
2018-09-26T16:17:17.758Z,80.60
2018-09-26T16:19:47.074Z,81.30
2018-09-26T16:22:16.534Z,82.80
2018-09-26T16:24:45.882Z,82.80
2018-09-26T16:27:15.203Z,84.00
2018-09-26T16:29:44.551Z,83.40
2018-09-26T16:32:13.935Z,83.90
2018-09-26T16:34:43.297Z,83.60
2018-09-26T16:37:12.596Z,84.30
2018-09-26T16:39:42.062Z,85.20
2018-09-26T16:42:11.419Z,85.50
2018-09-26T16:44:40.731Z,85.70
2018-09-26T16:47:10.080Z,86.00
2018-09-26T16:49:39.728Z,85.50
2018-09-26T16:52:09.178Z,88.60
2018-09-26T16:54:38.383Z,90.30
2018-09-26T16:57:07.920Z,91.60
2018-09-26T16:59:37.318Z,91.90
2018-09-26T17:02:06.733Z,93.10
2018-09-26T17:04:36.079Z,93.40
2018-09-26T17:07:05.677Z,92.80
2018-09-26T17:09:35.146Z,93.40
2018-09-26T17:12:04.553Z,93.70
2018-09-26T17:14:33.899Z,93.70
2018-09-26T17:17:03.368Z,93.70
2018-09-26T17:19:32.806Z,93.60
2018-09-26T17:22:02.236Z,94.40
2018-09-26T17:24:31.591Z,94.10
2018-09-26T17:27:00.936Z,94.80
2018-09-26T17:29:30.172Z,94.30
2018-09-26T17:31:59.592Z,95.00
2018-09-26T17:34:29.004Z,95.50
2018-09-26T17:36:58.365Z,95.90
2018-09-26T17:39:27.676Z,96.10
2018-09-26T17:41:56.996Z,96.30
2018-09-26T17:44:26.555Z,96.20
2018-09-26T17:46:55.895Z,96.40
2018-09-26T17:49:25.156Z,96.90
2018-09-26T17:51:54.419Z,96.70
2018-09-26T17:54:23.822Z,97.40
2018-09-26T17:56:53.145Z,96.60
2018-09-26T17:59:22.373Z,97.20
2018-09-26T18:01:51.770Z,97.10
2018-09-26T18:04:21.072Z,96.80
2018-09-26T18:06:50.345Z,98.10
2018-09-26T18:09:19.629Z,98.20
2018-09-26T18:11:48.986Z,98.70
2018-09-26T18:14:18.368Z,98.50
2018-09-26T18:16:47.751Z,98.70
2018-09-26T18:19:17.059Z,98.90
2018-09-26T18:21:46.405Z,98.50
2018-09-26T18:24:15.744Z,98.40
2018-09-26T18:26:45.279Z,98.70
2018-09-26T18:29:14.643Z,98.70
2018-09-26T18:31:44.214Z,98.70
2018-09-26T18:34:13.607Z,99.00
2018-09-26T18:36:42.985Z,99.00
2018-09-26T18:39:12.571Z,99.30
2018-09-26T18:41:41.964Z,98.60
2018-09-26T18:44:17.582Z,98.60
2018-09-26T18:46:47.415Z,99.00
2018-09-26T18:49:16.696Z,98.70
2018-09-26T18:51:45.976Z,98.50
2018-09-26T18:54:15.193Z,98.60
2018-09-26T18:56:44.588Z,98.80
2018-09-26T18:59:13.940Z,99.10
2018-09-26T19:01:43.156Z,99.10
2018-09-26T19:04:12.543Z,99.30
2018-09-26T19:06:41.905Z,99.60
2018-09-26T19:09:11.989Z,99.70
2018-09-26T19:11:41.371Z,99.50
2018-09-26T19:14:10.911Z,99.90
2018-09-26T19:16:40.388Z,99.90
2018-09-26T19:19:09.712Z,99.90
2018-09-26T19:21:39.040Z,99.90
2018-09-26T19:24:08.372Z,99.90
2018-09-26T19:26:37.793Z,99.90
2018-09-26T19:29:07.320Z,99.90
2018-09-26T19:31:36.652Z,99.90
2018-09-26T19:34:05.952Z,99.90
2018-09-26T19:36:35.427Z,99.90
2018-09-26T19:39:06.248Z,99.90
2018-09-26T19:41:35.700Z,99.90
2018-09-26T19:44:05.087Z,99.90
2018-09-26T19:46:34.592Z,99.90
2018-09-26T19:49:04.135Z,99.90
2018-09-26T19:51:33.725Z,99.90
2018-09-26T19:54:02.993Z,99.90
2018-09-26T19:56:32.390Z,99.90
2018-09-26T19:59:01.655Z,99.90
2018-09-26T20:01:31.097Z,99.90
2018-09-26T20:04:00.300Z,99.90
2018-09-26T20:06:29.540Z,99.90
2018-09-26T20:08:58.728Z,99.90
2018-09-26T20:11:27.935Z,99.90
2018-09-26T20:13:57.504Z,99.90
2018-09-26T20:16:26.825Z,99.90
2018-09-26T20:18:56.011Z,99.90
2018-09-26T20:21:25.277Z,99.90
2018-09-26T20:23:54.936Z,99.90
2018-09-26T20:26:24.236Z,99.90
2018-09-26T20:28:53.529Z,99.90
2018-09-26T20:31:22.815Z,99.90
2018-09-26T20:33:52.103Z,99.90
2018-09-26T20:36:21.353Z,99.90
2018-09-26T20:38:50.880Z,99.90
2018-09-26T20:41:20.120Z,99.90
2018-09-26T20:43:49.359Z,99.90
2018-09-26T20:46:18.658Z,99.90
2018-09-26T20:48:47.877Z,99.90
2018-09-26T20:51:17.079Z,99.90
2018-09-26T20:53:46.276Z,99.90
2018-09-26T20:56:15.559Z,99.90
2018-09-26T20:58:44.801Z,99.90
2018-09-26T21:01:13.996Z,99.90
2018-09-26T21:03:43.272Z,99.90
2018-09-26T21:06:12.657Z,99.90
2018-09-26T21:08:41.843Z,99.90
2018-09-26T21:11:11.044Z,99.90
2018-09-26T21:13:40.215Z,99.90
2018-09-26T21:16:09.467Z,99.90
2018-09-26T21:18:38.668Z,99.90
2018-09-26T21:21:07.873Z,99.90
2018-09-26T21:23:37.196Z,99.90
2018-09-26T21:26:06.413Z,99.90
2018-09-26T21:28:35.701Z,99.90
2018-09-26T21:31:05.017Z,99.90
2018-09-26T21:33:34.187Z,99.90
2018-09-26T21:36:03.463Z,99.90
2018-09-26T21:38:32.692Z,99.90
2018-09-26T21:41:01.918Z,99.90
2018-09-26T21:43:31.183Z,99.90
2018-09-26T21:46:00.388Z,99.90
2018-09-26T21:48:29.616Z,99.90
2018-09-26T21:50:58.827Z,99.90
2018-09-26T21:53:28.184Z,99.90
2018-09-26T21:55:57.415Z,99.90
2018-09-26T21:58:26.748Z,99.90
2018-09-26T22:01:01.455Z,99.90
2018-09-26T22:03:30.756Z,99.90
2018-09-26T22:05:59.974Z,99.90
2018-09-26T22:08:29.354Z,99.90
2018-09-26T22:10:58.620Z,99.90
2018-09-26T22:13:27.933Z,99.90
2018-09-26T22:15:57.165Z,99.90
2018-09-26T22:18:26.436Z,99.90
2018-09-26T22:20:55.677Z,99.90
2018-09-26T22:23:25.147Z,99.90
2018-09-26T22:25:54.357Z,99.90
2018-09-26T22:28:23.660Z,99.90
2018-09-26T22:30:52.939Z,99.90
2018-09-26T22:33:22.196Z,99.90
2018-09-26T22:35:51.404Z,99.90
2018-09-26T22:38:20.834Z,99.90
2018-09-26T22:40:50.077Z,99.90
2018-09-26T22:43:19.412Z,99.90
2018-09-26T22:45:48.656Z,99.90
2018-09-26T22:48:17.968Z,99.90
2018-09-26T22:50:47.225Z,99.90
2018-09-26T22:53:16.460Z,99.90
2018-09-26T22:55:45.681Z,99.90
2018-09-26T22:58:15.023Z,99.90
2018-09-26T23:00:44.152Z,99.90
2018-09-26T23:03:13.378Z,99.90
2018-09-26T23:05:42.612Z,99.90
2018-09-26T23:08:11.834Z,99.90
2018-09-26T23:10:41.072Z,99.90
2018-09-26T23:13:10.332Z,99.90
2018-09-26T23:15:39.599Z,99.90
2018-09-26T23:18:08.875Z,99.90
2018-09-26T23:20:38.095Z,99.90
2018-09-26T23:23:07.581Z,99.90
2018-09-26T23:25:36.807Z,99.90
2018-09-26T23:28:06.148Z,99.90
2018-09-26T23:30:35.380Z,99.90
2018-09-26T23:33:04.660Z,99.90
2018-09-26T23:35:33.877Z,99.90
2018-09-26T23:38:03.255Z,99.90
2018-09-26T23:40:32.479Z,99.90
2018-09-26T23:43:01.747Z,99.90
2018-09-26T23:45:30.974Z,99.90
2018-09-26T23:48:00.266Z,99.90
2018-09-26T23:50:29.469Z,99.90
2018-09-26T23:52:58.692Z,99.90
2018-09-26T23:55:27.970Z,99.90
2018-09-26T23:57:57.214Z,99.90
